sensor_id;sensor_type;location;lat;lon;timestamp;pressure;altitude;pressure_sealevel;temperature;humidity
47761;BME280;33524;55.434;38.520;2023-04-05T00:00:00;100467.81;;;2.31;100.00
47761;BME280;33524;55.434;38.520;2023-04-05T00:02:40;100472.94;;;2.56;100.00
47761;BME280;33524;55.434;38.520;2023-04-05T00:05:08;100488.31;;;2.84;98.96
47761;BME280;33524;55.434;38.520;2023-04-05T00:07:57;100479.28;;;2.93;98.04
47761;BME280;33524;55.434;38.520;2023-04-05T00:10:39;100483.34;;;2.78;100.00
47761;BME280;33524;55.434;38.520;2023-04-05T00:13:08;100463.53;;;2.75;100.00
47761;BME280;33524;55.434;38.520;2023-04-05T00:15:35;100475.56;;;2.78;100.00
47761;BME280;33524;55.434;38.520;2023-04-05T00:18:04;100471.44;;;2.72;100.00
47761;BME280;33524;55.434;38.520;2023-04-05T00:20:33;100471.66;;;2.44;100.00
47761;BME280;33524;55.434;38.520;2023-04-05T00:23:16;100471.16;;;2.34;100.00
47761;BME280;33524;55.434;38.520;2023-04-05T00:25:52;100464.09;;;2.14;100.00
47761;BME280;33524;55.434;38.520;2023-04-05T00:28:21;100465.84;;;1.90;100.00
47761;BME280;33524;55.434;38.520;2023-04-05T00:31:03;100462.34;;;1.66;100.00
47761;BME280;33524;55.434;38.520;2023-04-05T00:33:32;100469.16;;;1.44;100.00
47761;BME280;33524;55.434;38.520;2023-04-05T00:36:09;100461.25;;;1.47;100.00
47761;BME280;33524;55.434;38.520;2023-04-05T00:38:39;100461.38;;;1.44;100.00
47761;BME280;33524;55.434;38.520;2023-04-05T00:41:07;100463.06;;;1.45;100.00
47761;BME280;33524;55.434;38.520;2023-04-05T00:43:35;100465.34;;;1.54;100.00
47761;BME280;33524;55.434;38.520;2023-04-05T00:46:04;100462.34;;;1.66;100.00
47761;BME280;33524;55.434;38.520;2023-04-05T00:48:34;100466.19;;;1.79;100.00
47761;BME280;33524;55.434;38.520;2023-04-05T00:51:02;100463.16;;;1.92;100.00
47761;BME280;33524;55.434;38.520;2023-04-05T00:53:30;100461.22;;;1.73;100.00
47761;BME280;33524;55.434;38.520;2023-04-05T00:55:59;100462.97;;;1.73;100.00
47761;BME280;33524;55.434;38.520;2023-04-05T00:58:28;100465.91;;;1.64;100.00
47761;BME280;33524;55.434;38.520;2023-04-05T01:01:06;100453.41;;;1.50;100.00
47761;BME280;33524;55.434;38.520;2023-04-05T01:03:43;100465.25;;;1.57;100.00
47761;BME280;33524;55.434;38.520;2023-04-05T01:12:16;100470.56;;;2.02;100.00
47761;BME280;33524;55.434;38.520;2023-04-05T01:14:46;100467.03;;;2.29;95.94
47761;BME280;33524;55.434;38.520;2023-04-05T01:17:20;100466.16;;;2.05;96.97
47761;BME280;33524;55.434;38.520;2023-04-05T01:19:59;100471.97;;;1.88;97.48
47761;BME280;33524;55.434;38.520;2023-04-05T01:22:39;100469.53;;;2.32;92.95
47761;BME280;33524;55.434;38.520;2023-04-05T01:30:48;100466.69;;;2.38;90.39
47761;BME280;33524;55.434;38.520;2023-04-05T01:38:26;100474.31;;;3.31;83.08
47761;BME280;33524;55.434;38.520;2023-04-05T01:40:54;100486.81;;;2.55;87.81
47761;BME280;33524;55.434;38.520;2023-04-05T01:43:23;100471.75;;;2.41;89.32
47761;BME280;33524;55.434;38.520;2023-04-05T01:45:51;100482.81;;;1.99;94.70
47761;BME280;33524;55.434;38.520;2023-04-05T01:48:19;100476.19;;;1.65;96.14
47761;BME280;33524;55.434;38.520;2023-04-05T01:50:46;100478.44;;;1.24;100.00
47761;BME280;33524;55.434;38.520;2023-04-05T01:53:15;100478.38;;;1.52;100.00
47761;BME280;33524;55.434;38.520;2023-04-05T01:55:42;100485.56;;;1.69;97.56
47761;BME280;33524;55.434;38.520;2023-04-05T01:58:10;100484.09;;;1.62;97.87
47761;BME280;33524;55.434;38.520;2023-04-05T02:00:38;100482.31;;;1.37;98.66
47761;BME280;33524;55.434;38.520;2023-04-05T02:03:07;100489.22;;;1.12;100.00
47761;BME280;33524;55.434;38.520;2023-04-05T02:05:35;100493.78;;;1.04;100.00
47761;BME280;33524;55.434;38.520;2023-04-05T02:08:03;100474.78;;;1.03;100.00
47761;BME280;33524;55.434;38.520;2023-04-05T02:10:31;100490.59;;;1.22;100.00
47761;BME280;33524;55.434;38.520;2023-04-05T02:12:59;100490.41;;;1.28;100.00
47761;BME280;33524;55.434;38.520;2023-04-05T02:15:29;100499.38;;;0.90;100.00
47761;BME280;33524;55.434;38.520;2023-04-05T02:17:58;100503.00;;;0.84;100.00
47761;BME280;33524;55.434;38.520;2023-04-05T02:20:29;100496.44;;;0.72;100.00
47761;BME280;33524;55.434;38.520;2023-04-05T02:22:57;100501.50;;;0.77;100.00
47761;BME280;33524;55.434;38.520;2023-04-05T02:25:29;100503.22;;;1.05;100.00
47761;BME280;33524;55.434;38.520;2023-04-05T02:27:57;100506.25;;;1.19;100.00
47761;BME280;33524;55.434;38.520;2023-04-05T02:30:25;100519.75;;;1.29;100.00
47761;BME280;33524;55.434;38.520;2023-04-05T02:32:55;100516.59;;;1.19;100.00
47761;BME280;33524;55.434;38.520;2023-04-05T02:35:24;100518.78;;;1.05;100.00
47761;BME280;33524;55.434;38.520;2023-04-05T02:37:52;100516.78;;;0.85;100.00
47761;BME280;33524;55.434;38.520;2023-04-05T02:40:20;100522.91;;;0.82;100.00
47761;BME280;33524;55.434;38.520;2023-04-05T02:42:49;100521.56;;;0.98;100.00
47761;BME280;33524;55.434;38.520;2023-04-05T02:45:17;100514.97;;;1.16;100.00
47761;BME280;33524;55.434;38.520;2023-04-05T02:47:46;100523.50;;;1.20;100.00
47761;BME280;33524;55.434;38.520;2023-04-05T02:50:15;100518.81;;;1.03;100.00
47761;BME280;33524;55.434;38.520;2023-04-05T02:52:47;100517.28;;;0.97;100.00
47761;BME280;33524;55.434;38.520;2023-04-05T02:55:16;100520.94;;;0.62;100.00
47761;BME280;33524;55.434;38.520;2023-04-05T02:57:44;100516.84;;;0.53;100.00
47761;BME280;33524;55.434;38.520;2023-04-05T03:00:16;100517.63;;;0.57;100.00
47761;BME280;33524;55.434;38.520;2023-04-05T03:02:44;100515.63;;;0.67;100.00
47761;BME280;33524;55.434;38.520;2023-04-05T03:05:12;100520.31;;;0.82;100.00
47761;BME280;33524;55.434;38.520;2023-04-05T03:07:42;100524.87;;;1.04;100.00
47761;BME280;33524;55.434;38.520;2023-04-05T03:10:12;100522.16;;;1.07;100.00
47761;BME280;33524;55.434;38.520;2023-04-05T03:12:41;100522.47;;;0.97;100.00
47761;BME280;33524;55.434;38.520;2023-04-05T03:15:09;100519.75;;;1.00;100.00
47761;BME280;33524;55.434;38.520;2023-04-05T03:17:39;100518.87;;;1.02;100.00
47761;BME280;33524;55.434;38.520;2023-04-05T03:20:12;100526.13;;;0.90;100.00
47761;BME280;33524;55.434;38.520;2023-04-05T03:22:40;100527.53;;;1.00;100.00
47761;BME280;33524;55.434;38.520;2023-04-05T03:25:09;100521.97;;;0.85;100.00
47761;BME280;33524;55.434;38.520;2023-04-05T03:27:39;100515.06;;;0.85;100.00
47761;BME280;33524;55.434;38.520;2023-04-05T03:30:09;100529.53;;;0.91;100.00
47761;BME280;33524;55.434;38.520;2023-04-05T03:32:37;100526.13;;;0.90;100.00
47761;BME280;33524;55.434;38.520;2023-04-05T03:35:06;100536.09;;;1.03;100.00
47761;BME280;33524;55.434;38.520;2023-04-05T03:37:35;100540.03;;;1.16;100.00
47761;BME280;33524;55.434;38.520;2023-04-05T03:40:03;100543.78;;;1.32;100.00
47761;BME280;33524;55.434;38.520;2023-04-05T03:42:33;100534.41;;;1.56;100.00
47761;BME280;33524;55.434;38.520;2023-04-05T03:45:02;100542.88;;;1.61;100.00
47761;BME280;33524;55.434;38.520;2023-04-05T03:47:32;100539.72;;;1.52;100.00
47761;BME280;33524;55.434;38.520;2023-04-05T03:50:02;100541.50;;;1.76;100.00
47761;BME280;33524;55.434;38.520;2023-04-05T03:52:31;100531.87;;;2.05;97.31
47761;BME280;33524;55.434;38.520;2023-04-05T03:54:59;100540.09;;;2.65;88.71
47761;BME280;33524;55.434;38.520;2023-04-05T03:57:29;100543.09;;;3.22;83.40
47761;BME280;33524;55.434;38.520;2023-04-05T03:59:58;100547.94;;;3.09;86.62
47761;BME280;33524;55.434;38.520;2023-04-05T04:02:29;100551.69;;;3.02;88.38
47761;BME280;33524;55.434;38.520;2023-04-05T04:04:57;100546.81;;;3.16;86.22
47761;BME280;33524;55.434;38.520;2023-04-05T04:07:28;100554.78;;;3.76;80.38
47761;BME280;33524;55.434;38.520;2023-04-05T04:09:56;100571.38;;;3.94;78.83
47761;BME280;33524;55.434;38.520;2023-04-05T04:12:24;100560.19;;;4.13;79.33
47761;BME280;33524;55.434;38.520;2023-04-05T04:14:53;100558.94;;;4.01;79.81
47761;BME280;33524;55.434;38.520;2023-04-05T04:17:33;100565.81;;;4.43;76.20
47761;BME280;33524;55.434;38.520;2023-04-05T04:20:03;100563.88;;;4.28;77.10
47761;BME280;33524;55.434;38.520;2023-04-05T04:22:42;100569.78;;;4.71;75.16
47761;BME280;33524;55.434;38.520;2023-04-05T04:25:13;100571.53;;;4.89;74.31
47761;BME280;33524;55.434;38.520;2023-04-05T04:27:42;100571.03;;;5.00;73.77
47761;BME280;33524;55.434;38.520;2023-04-05T04:30:13;100578.94;;;4.60;81.57
47761;BME280;33524;55.434;38.520;2023-04-05T04:32:42;100581.12;;;5.08;74.72
47761;BME280;33524;55.434;38.520;2023-04-05T04:35:27;100585.50;;;5.43;72.93
47761;BME280;33524;55.434;38.520;2023-04-05T04:37:58;100586.09;;;5.50;74.80
47761;BME280;33524;55.434;38.520;2023-04-05T04:40:38;100588.25;;;5.77;72.25
47761;BME280;33524;55.434;38.520;2023-04-05T04:43:10;100590.22;;;6.08;71.39
47761;BME280;33524;55.434;38.520;2023-04-05T04:45:48;100588.81;;;6.18;71.64
47761;BME280;33524;55.434;38.520;2023-04-05T04:48:18;100577.44;;;6.53;70.27
47761;BME280;33524;55.434;38.520;2023-04-05T04:50:47;100594.91;;;6.52;71.42
47761;BME280;33524;55.434;38.520;2023-04-05T04:53:17;100582.50;;;6.89;69.92
47761;BME280;33524;55.434;38.520;2023-04-05T04:55:47;100580.31;;;6.97;73.48
47761;BME280;33524;55.434;38.520;2023-04-05T04:58:16;100581.78;;;6.36;80.75
47761;BME280;33524;55.434;38.520;2023-04-05T05:00:49;100583.50;;;7.02;71.82
47761;BME280;33524;55.434;38.520;2023-04-05T05:03:19;100586.53;;;7.11;72.85
47761;BME280;33524;55.434;38.520;2023-04-05T05:05:49;100587.13;;;7.47;70.68
47761;BME280;33524;55.434;38.520;2023-04-05T05:08:18;100601.50;;;7.71;72.77
47761;BME280;33524;55.434;38.520;2023-04-05T05:10:51;100580.25;;;6.65;83.51
47761;BME280;33524;55.434;38.520;2023-04-05T05:13:19;100580.81;;;6.39;84.86
47761;BME280;33524;55.434;38.520;2023-04-05T05:15:48;100592.19;;;7.81;73.91
47761;BME280;33524;55.434;38.520;2023-04-05T05:18:16;100579.13;;;8.40;71.41
47761;BME280;33524;55.434;38.520;2023-04-05T05:20:44;100591.75;;;9.05;68.21
47761;BME280;33524;55.434;38.520;2023-04-05T05:23:12;100596.94;;;8.04;75.85
47761;BME280;33524;55.434;38.520;2023-04-05T05:25:40;100595.66;;;9.26;69.78
47761;BME280;33524;55.434;38.520;2023-04-05T05:28:08;100590.34;;;9.68;68.64
47761;BME280;33524;55.434;38.520;2023-04-05T05:30:37;100594.28;;;9.06;71.75
47761;BME280;33524;55.434;38.520;2023-04-05T05:33:05;100600.09;;;10.06;67.04
47761;BME280;33524;55.434;38.520;2023-04-05T05:35:33;100598.19;;;9.55;69.83
47761;BME280;33524;55.434;38.520;2023-04-05T05:38:01;100601.41;;;10.39;66.43
47761;BME280;33524;55.434;38.520;2023-04-05T05:40:29;100604.75;;;10.92;65.06
47761;BME280;33524;55.434;38.520;2023-04-05T05:42:57;100599.00;;;11.11;65.18
47761;BME280;33524;55.434;38.520;2023-04-05T05:45:25;100609.91;;;10.81;66.15
47761;BME280;33524;55.434;38.520;2023-04-05T05:47:55;100604.31;;;11.22;65.11
47761;BME280;33524;55.434;38.520;2023-04-05T05:50:23;100611.62;;;9.36;70.66
47761;BME280;33524;55.434;38.520;2023-04-05T05:52:51;100608.53;;;10.88;67.74
47761;BME280;33524;55.434;38.520;2023-04-05T05:55:19;100615.72;;;11.71;65.63
47761;BME280;33524;55.434;38.520;2023-04-05T05:57:47;100614.03;;;12.29;64.42
47761;BME280;33524;55.434;38.520;2023-04-05T06:00:22;100610.44;;;10.47;66.13
47761;BME280;33524;55.434;38.520;2023-04-05T06:02:50;100609.00;;;11.19;69.94
47761;BME280;33524;55.434;38.520;2023-04-05T06:05:19;100610.75;;;11.79;66.92
47761;BME280;33524;55.434;38.520;2023-04-05T06:07:47;100604.03;;;11.99;66.61
47761;BME280;33524;55.434;38.520;2023-04-05T06:10:15;100606.81;;;11.61;63.57
47761;BME280;33524;55.434;38.520;2023-04-05T06:12:43;100616.91;;;10.03;65.93
47761;BME280;33524;55.434;38.520;2023-04-05T06:15:12;100606.41;;;11.30;71.03
47761;BME280;33524;55.434;38.520;2023-04-05T06:17:40;100614.44;;;11.77;62.53
47761;BME280;33524;55.434;38.520;2023-04-05T06:20:09;100608.38;;;10.40;65.04
47761;BME280;33524;55.434;38.520;2023-04-05T06:22:39;100614.66;;;12.56;67.04
47761;BME280;33524;55.434;38.520;2023-04-05T06:25:08;100614.91;;;13.31;61.39
47761;BME280;33524;55.434;38.520;2023-04-05T06:27:38;100620.16;;;13.75;63.04
47761;BME280;33524;55.434;38.520;2023-04-05T06:30:06;100609.25;;;14.43;62.42
47761;BME280;33524;55.434;38.520;2023-04-05T06:32:35;100617.41;;;13.33;57.91
47761;BME280;33524;55.434;38.520;2023-04-05T06:35:15;100611.91;;;13.02;65.21
47761;BME280;33524;55.434;38.520;2023-04-05T06:37:43;100618.84;;;14.65;62.52
47761;BME280;33524;55.434;38.520;2023-04-05T06:40:12;100618.66;;;14.87;61.86
47761;BME280;33524;55.434;38.520;2023-04-05T06:42:40;100622.81;;;12.98;56.64
47761;BME280;33524;55.434;38.520;2023-04-05T06:45:09;100619.44;;;11.93;59.20
47761;BME280;33524;55.434;38.520;2023-04-05T06:47:38;100618.16;;;14.00;66.18
47761;BME280;33524;55.434;38.520;2023-04-05T06:50:07;100618.12;;;14.42;58.81
47761;BME280;33524;55.434;38.520;2023-04-05T06:52:37;100612.47;;;14.25;55.56
47761;BME280;33524;55.434;38.520;2023-04-05T06:55:05;100614.44;;;12.70;62.46
47761;BME280;33524;55.434;38.520;2023-04-05T06:57:34;100611.56;;;14.15;66.17
47761;BME280;33524;55.434;38.520;2023-04-05T07:00:03;100615.44;;;15.34;62.13
47761;BME280;33524;55.434;38.520;2023-04-05T07:02:36;100617.94;;;15.36;61.66
47761;BME280;33524;55.434;38.520;2023-04-05T07:05:05;100616.78;;;15.19;63.05
47761;BME280;33524;55.434;38.520;2023-04-05T07:07:42;100626.06;;;15.53;59.69
47761;BME280;33524;55.434;38.520;2023-04-05T07:10:12;100624.41;;;14.41;64.49
47761;BME280;33524;55.434;38.520;2023-04-05T07:12:40;100624.47;;;15.82;61.79
47761;BME280;33524;55.434;38.520;2023-04-05T07:15:08;100624.47;;;15.82;61.73
47761;BME280;33524;55.434;38.520;2023-04-05T07:17:37;100621.88;;;16.39;59.67
47761;BME280;33524;55.434;38.520;2023-04-05T07:20:05;100617.03;;;14.23;64.76
47761;BME280;33524;55.434;38.520;2023-04-05T07:25:20;100623.47;;;14.51;50.33
47761;BME280;33524;55.434;38.520;2023-04-05T07:27:49;100618.19;;;15.73;64.13
47761;BME280;33524;55.434;38.520;2023-04-05T07:30:17;100603.25;;;16.58;61.84
47761;BME280;33524;55.434;38.520;2023-04-05T07:32:45;100610.19;;;17.06;52.61
47761;BME280;33524;55.434;38.520;2023-04-05T07:35:13;100620.94;;;16.67;59.33
47761;BME280;33524;55.434;38.520;2023-04-05T07:37:41;100609.78;;;17.29;59.65
47761;BME280;33524;55.434;38.520;2023-04-05T07:40:10;100606.09;;;18.38;56.22
47761;BME280;33524;55.434;38.520;2023-04-05T07:42:39;100605.34;;;18.80;54.29
47761;BME280;33524;55.434;38.520;2023-04-05T07:45:07;100610.41;;;18.39;55.37
47761;BME280;33524;55.434;38.520;2023-04-05T07:47:36;100618.28;;;17.05;55.09
47761;BME280;33524;55.434;38.520;2023-04-05T07:50:04;100616.31;;;18.50;57.15
47761;BME280;33524;55.434;38.520;2023-04-05T07:52:33;100614.03;;;18.29;51.78
47761;BME280;33524;55.434;38.520;2023-04-05T07:55:02;100618.19;;;19.27;52.95
47761;BME280;33524;55.434;38.520;2023-04-05T07:57:30;100607.91;;;19.56;53.84
47761;BME280;33524;55.434;38.520;2023-04-05T07:59:57;100611.69;;;17.54;42.86
47761;BME280;33524;55.434;38.520;2023-04-05T08:02:26;100612.75;;;16.98;61.84
47761;BME280;33524;55.434;38.520;2023-04-05T08:04:54;100621.66;;;15.93;46.66
47761;BME280;33524;55.434;38.520;2023-04-05T08:07:22;100615.59;;;19.68;55.27
47761;BME280;33524;55.434;38.520;2023-04-05T08:09:50;100611.97;;;20.10;52.82
47761;BME280;33524;55.434;38.520;2023-04-05T08:12:20;100593.37;;;20.97;50.88
47761;BME280;33524;55.434;38.520;2023-04-05T08:14:48;100608.62;;;20.08;52.30
47761;BME280;33524;55.434;38.520;2023-04-05T08:17:16;100619.13;;;18.23;43.09
47761;BME280;33524;55.434;38.520;2023-04-05T08:19:44;100600.84;;;19.23;57.34
47761;BME280;33524;55.434;38.520;2023-04-05T08:22:12;100597.00;;;21.44;50.17
47761;BME280;33524;55.434;38.520;2023-04-05T08:24:42;100600.34;;;21.69;50.25
47761;BME280;33524;55.434;38.520;2023-04-05T08:27:11;100598.22;;;21.64;50.29
47761;BME280;33524;55.434;38.520;2023-04-05T08:29:38;100597.81;;;18.75;54.80
47761;BME280;33524;55.434;38.520;2023-04-05T08:32:07;100601.59;;;19.90;55.88
47761;BME280;33524;55.434;38.520;2023-04-05T08:34:35;100586.59;;;19.89;44.69
47761;BME280;33524;55.434;38.520;2023-04-05T08:37:03;100609.72;;;16.36;43.13
47761;BME280;33524;55.434;38.520;2023-04-05T08:39:34;100607.59;;;19.76;45.93
47761;BME280;33524;55.434;38.520;2023-04-05T08:42:07;100608.59;;;16.39;44.12
47761;BME280;33524;55.434;38.520;2023-04-05T08:44:40;100600.78;;;17.12;44.25
47761;BME280;33524;55.434;38.520;2023-04-05T08:47:09;100607.13;;;16.07;46.28
47761;BME280;33524;55.434;38.520;2023-04-05T08:49:43;100595.56;;;21.25;54.09
47761;BME280;33524;55.434;38.520;2023-04-05T08:52:11;100583.91;;;21.17;46.53
47761;BME280;33524;55.434;38.520;2023-04-05T08:54:40;100601.22;;;15.35;44.71
47761;BME280;33524;55.434;38.520;2023-04-05T08:57:08;100578.75;;;21.39;54.06
47761;BME280;33524;55.434;38.520;2023-04-05T08:59:37;100572.75;;;21.37;50.92
47761;BME280;33524;55.434;38.520;2023-04-05T09:02:14;100583.75;;;18.99;54.18
47761;BME280;33524;55.434;38.520;2023-04-05T09:04:46;100574.62;;;22.65;50.12
47761;BME280;33524;55.434;38.520;2023-04-05T09:07:15;100572.59;;;23.33;47.80
47761;BME280;33524;55.434;38.520;2023-04-05T09:09:54;100579.69;;;23.05;48.12
47761;BME280;33524;55.434;38.520;2023-04-05T09:12:25;100591.00;;;18.81;38.82
47761;BME280;33524;55.434;38.520;2023-04-05T09:14:54;100583.66;;;20.48;48.78
47761;BME280;33524;55.434;38.520;2023-04-05T09:17:23;100576.59;;;23.01;49.57
47761;BME280;33524;55.434;38.520;2023-04-05T09:19:51;100577.97;;;22.67;50.15
47761;BME280;33524;55.434;38.520;2023-04-05T09:22:21;100576.00;;;23.42;42.19
47761;BME280;33524;55.434;38.520;2023-04-05T09:24:49;100582.91;;;19.66;38.65
47761;BME280;33524;55.434;38.520;2023-04-05T09:27:18;100585.63;;;17.94;42.96
47761;BME280;33524;55.434;38.520;2023-04-05T09:29:48;100591.25;;;15.78;44.09
47761;BME280;33524;55.434;38.520;2023-04-05T09:32:17;100594.50;;;15.31;46.13
47761;BME280;33524;55.434;38.520;2023-04-05T09:34:47;100592.03;;;15.98;44.90
47761;BME280;33524;55.434;38.520;2023-04-05T09:37:20;100567.53;;;17.80;45.24
47761;BME280;33524;55.434;38.520;2023-04-05T09:39:49;100582.19;;;18.02;51.79
47761;BME280;33524;55.434;38.520;2023-04-05T09:42:19;100584.75;;;18.64;44.89
47761;BME280;33524;55.434;38.520;2023-04-05T09:44:58;100591.22;;;15.87;45.35
47761;BME280;33524;55.434;38.520;2023-04-05T09:47:32;100581.53;;;17.64;42.83
47761;BME280;33524;55.434;38.520;2023-04-05T09:52:41;100599.03;;;15.69;44.69
47761;BME280;33524;55.434;38.520;2023-04-05T09:55:10;100591.75;;;17.23;63.62
47761;BME280;33524;55.434;38.520;2023-04-05T09:57:40;100595.50;;;20.54;55.69
47761;BME280;33524;55.434;38.520;2023-04-05T10:00:18;100588.44;;;17.57;39.14
47761;BME280;33524;55.434;38.520;2023-04-05T10:02:46;100585.06;;;18.61;53.76
47761;BME280;33524;55.434;38.520;2023-04-05T10:05:23;100584.56;;;20.32;53.78
47761;BME280;33524;55.434;38.520;2023-04-05T10:07:52;100575.25;;;23.12;49.45
47761;BME280;33524;55.434;38.520;2023-04-05T10:10:21;100568.75;;;23.21;39.87
47761;BME280;33524;55.434;38.520;2023-04-05T10:12:50;100568.63;;;22.78;37.95
47761;BME280;33524;55.434;38.520;2023-04-05T10:15:19;100568.38;;;22.43;49.88
47761;BME280;33524;55.434;38.520;2023-04-05T10:18:02;100570.75;;;22.83;39.53
47761;BME280;33524;55.434;38.520;2023-04-05T10:20:32;100562.75;;;24.12;49.71
47761;BME280;33524;55.434;38.520;2023-04-05T10:23:08;100563.00;;;24.87;39.53
47761;BME280;33524;55.434;38.520;2023-04-05T10:25:52;100565.25;;;23.42;49.25
47761;BME280;33524;55.434;38.520;2023-04-05T10:28:38;100558.81;;;24.08;38.81
47761;BME280;33524;55.434;38.520;2023-04-05T10:31:11;100560.75;;;25.99;43.75
47761;BME280;33524;55.434;38.520;2023-04-05T10:34:05;100571.63;;;21.63;37.46
47761;BME280;33524;55.434;38.520;2023-04-05T10:37:01;100571.50;;;23.92;38.25
47761;BME280;33524;55.434;38.520;2023-04-05T10:39:44;100576.44;;;20.01;43.63
47761;BME280;33524;55.434;38.520;2023-04-05T10:42:20;100582.66;;;18.15;41.38
47761;BME280;33524;55.434;38.520;2023-04-05T10:44:51;100574.81;;;16.31;41.32
47761;BME280;33524;55.434;38.520;2023-04-05T10:47:30;100584.22;;;19.45;51.92
47761;BME280;33524;55.434;38.520;2023-04-05T10:50:03;100583.19;;;20.61;48.41
47761;BME280;33524;55.434;38.520;2023-04-05T10:52:36;100568.41;;;24.87;44.32
47761;BME280;33524;55.434;38.520;2023-04-05T10:55:05;100575.09;;;21.86;34.65
47761;BME280;33524;55.434;38.520;2023-04-05T10:57:36;100564.28;;;24.21;47.24
47761;BME280;33524;55.434;38.520;2023-04-05T11:00:05;100562.13;;;19.02;36.32
47761;BME280;33524;55.434;38.520;2023-04-05T11:02:33;100568.50;;;17.07;40.62
47761;BME280;33524;55.434;38.520;2023-04-05T11:05:04;100561.34;;;21.89;52.36
47761;BME280;33524;55.434;38.520;2023-04-05T11:07:44;100557.94;;;24.64;45.01
47761;BME280;33524;55.434;38.520;2023-04-05T11:10:17;100556.69;;;24.31;34.18
47761;BME280;33524;55.434;38.520;2023-04-05T11:20:52;100558.31;;;16.74;41.48
47761;BME280;33524;55.434;38.520;2023-04-05T11:23:23;100558.47;;;16.26;41.80
47761;BME280;33524;55.434;38.520;2023-04-05T11:25:54;100559.03;;;19.40;53.55
47761;BME280;33524;55.434;38.520;2023-04-05T11:28:29;100547.47;;;21.16;37.70
47761;BME280;33524;55.434;38.520;2023-04-05T11:36:29;100558.75;;;18.92;44.47
47761;BME280;33524;55.434;38.520;2023-04-05T11:42:06;100545.50;;;17.15;40.37
47761;BME280;33524;55.434;38.520;2023-04-05T11:44:44;100557.41;;;18.53;38.92
47761;BME280;33524;55.434;38.520;2023-04-05T11:47:15;100553.59;;;18.99;53.85
47761;BME280;33524;55.434;38.520;2023-04-05T11:49:48;100552.00;;;21.39;47.53
47761;BME280;33524;55.434;38.520;2023-04-05T11:52:19;100544.75;;;22.09;48.56
47761;BME280;33524;55.434;38.520;2023-04-05T11:54:47;100552.84;;;18.38;38.85
47761;BME280;33524;55.434;38.520;2023-04-05T11:57:21;100532.84;;;17.45;39.67
47761;BME280;33524;55.434;38.520;2023-04-05T11:59:50;100553.22;;;16.91;40.67
47761;BME280;33524;55.434;38.520;2023-04-05T12:02:19;100548.59;;;18.87;55.45
47761;BME280;33524;55.434;38.520;2023-04-05T12:04:55;100546.25;;;17.98;39.18
47761;BME280;33524;55.434;38.520;2023-04-05T12:07:26;100551.06;;;17.22;39.49
47761;BME280;33524;55.434;38.520;2023-04-05T12:10:04;100547.09;;;17.08;39.92
47761;BME280;33524;55.434;38.520;2023-04-05T12:12:36;100554.78;;;16.74;40.89
47761;BME280;33524;55.434;38.520;2023-04-05T12:15:07;100541.44;;;18.96;46.80
47761;BME280;33524;55.434;38.520;2023-04-05T12:20:08;100557.34;;;18.45;39.14
47761;BME280;33524;55.434;38.520;2023-04-05T12:22:37;100544.03;;;18.45;37.15
47761;BME280;33524;55.434;38.520;2023-04-05T12:25:05;100543.50;;;18.76;36.89
47761;BME280;33524;55.434;38.520;2023-04-05T12:27:35;100542.91;;;18.22;36.70
47761;BME280;33524;55.434;38.520;2023-04-05T12:30:15;100545.56;;;19.74;38.78
47761;BME280;33524;55.434;38.520;2023-04-05T12:35:22;100531.06;;;20.96;33.45
47761;BME280;33524;55.434;38.520;2023-04-05T12:38:03;100532.56;;;21.22;32.85
47761;BME280;33524;55.434;38.520;2023-04-05T12:40:36;100542.53;;;20.10;34.82
47761;BME280;33524;55.434;38.520;2023-04-05T12:43:06;100539.22;;;20.64;33.72
47761;BME280;33524;55.434;38.520;2023-04-05T12:45:35;100531.09;;;21.66;32.11
47761;BME280;33524;55.434;38.520;2023-04-05T12:48:12;100540.88;;;20.01;33.07
47761;BME280;33524;55.434;38.520;2023-04-05T12:50:45;100536.16;;;20.75;34.35
47761;BME280;33524;55.434;38.520;2023-04-05T12:53:21;100537.88;;;21.53;32.10
47761;BME280;33524;55.434;38.520;2023-04-05T12:55:52;100536.31;;;21.82;31.37
47761;BME280;33524;55.434;38.520;2023-04-05T12:58:22;100538.13;;;22.34;31.22
47761;BME280;33524;55.434;38.520;2023-04-05T13:00:50;100531.16;;;21.58;29.51
47761;BME280;33524;55.434;38.520;2023-04-05T13:03:19;100541.22;;;21.55;31.20
47761;BME280;33524;55.434;38.520;2023-04-05T13:05:48;100533.00;;;21.34;31.04
47761;BME280;33524;55.434;38.520;2023-04-05T13:08:16;100534.47;;;21.13;31.06
47761;BME280;33524;55.434;38.520;2023-04-05T13:10:46;100542.03;;;20.14;31.91
47761;BME280;33524;55.434;38.520;2023-04-05T13:13:17;100545.44;;;18.23;34.65
47761;BME280;33524;55.434;38.520;2023-04-05T13:15:47;100544.59;;;17.61;35.83
47761;BME280;33524;55.434;38.520;2023-04-05T13:18:18;100540.88;;;18.50;35.46
47761;BME280;33524;55.434;38.520;2023-04-05T13:20:47;100541.87;;;19.59;34.61
47761;BME280;33524;55.434;38.520;2023-04-05T13:23:16;100543.34;;;20.27;33.26
47761;BME280;33524;55.434;38.520;2023-04-05T13:25:44;100536.59;;;21.41;31.58
47761;BME280;33524;55.434;38.520;2023-04-05T13:28:12;100536.00;;;20.76;31.36
47761;BME280;33524;55.434;38.520;2023-04-05T13:30:40;100538.22;;;19.92;32.53
47761;BME280;33524;55.434;38.520;2023-04-05T13:33:08;100538.75;;;20.44;32.43
47761;BME280;33524;55.434;38.520;2023-04-05T13:35:36;100546.72;;;19.88;32.70
47761;BME280;33524;55.434;38.520;2023-04-05T13:38:04;100548.69;;;19.45;32.68
47761;BME280;33524;55.434;38.520;2023-04-05T13:40:33;100542.50;;;19.20;33.94
47761;BME280;33524;55.434;38.520;2023-04-05T13:43:01;100540.12;;;20.31;32.15